Time;durP1;ratioP1;P1;durP2;ratioP2;P2;SDS_P1;SDS_P2;PMS_P1;PMS_P2;Temp;Humidity;BMP_temperature;BMP_pressure;BME280_temperature;BME280_humidity;BME280_pressure;Samples;Min_cycle;Max_cycle;Signal;HPM_P1;HPM_P2
2021/12/31 03:40:29;;;;;;;27.67;16.17;;;;;;;1.09;60.89;100400.32;1849712;75;22653;-59
2021/12/31 03:42:56;;;;;;;24.63;15.72;;;;;;;0.95;61.23;100404.77;1800676;77;20919;-60
2021/12/31 03:45:22;;;;;;;30.27;16.00;;;;;;;0.91;61.31;100409.23;1806697;77;21814;-59
2021/12/31 03:47:49;;;;;;;32.70;17.35;;;;;;;0.82;61.47;100400.52;1777270;78;21083;-59
2021/12/31 03:50:16;;;;;;;28.40;15.65;;;;;;;0.79;61.75;100399.80;1806031;77;21077;-60
2021/12/31 03:52:42;;;;;;;26.82;17.25;;;;;;;0.74;61.98;100397.41;1799680;78;21033;-60
2021/12/31 03:55:10;;;;;;;31.60;17.87;;;;;;;0.72;62.32;100397.47;1815615;78;21082;-59
2021/12/31 03:57:38;;;;;;;29.00;16.87;;;;;;;0.72;62.46;100386.23;1806075;77;21050;-60
2021/12/31 04:00:07;;;;;;;29.12;16.12;;;;;;;0.69;62.50;100386.36;1804752;77;21010;-60
2021/12/31 04:02:35;;;;;;;27.42;17.40;;;;;;;0.64;62.91;100385.69;1790178;77;21181;-60
2021/12/31 04:05:01;;;;;;;27.93;16.90;;;;;;;0.65;63.01;100386.09;1819051;77;21042;-60
2021/12/31 04:07:28;;;;;;;29.60;17.02;;;;;;;0.71;63.13;100380.69;1817363;77;21061;-60
2021/12/31 04:09:55;;;;;;;29.27;17.25;;;;;;;0.71;63.07;100373.75;1824446;77;21178;-61
2021/12/31 04:12:23;;;;;;;30.82;17.32;;;;;;;0.75;63.17;100377.06;1812765;77;21525;-61
2021/12/31 04:14:49;;;;;;;29.32;15.80;;;;;;;0.75;63.28;100373.17;1815637;78;21109;-60
2021/12/31 04:17:16;;;;;;;26.62;16.37;;;;;;;0.79;63.19;100369.58;1757014;80;21019;-61
2021/12/31 04:19:43;;;;;;;29.00;17.25;;;;;;;0.79;63.12;100374.75;1726966;80;21060;-61
2021/12/31 04:22:13;;;;;;;28.38;16.32;;;;;;;0.82;63.36;100369.42;1778017;79;21138;-60
2021/12/31 04:27:12;;;;;;;27.00;16.35;;;;;;;0.86;63.65;100369.72;1779079;79;21043;-60
2021/12/31 04:29:39;;;;;;;31.45;18.80;;;;;;;0.87;63.63;100370.09;1778564;80;21080;-60
2021/12/31 04:32:07;;;;;;;34.50;17.45;;;;;;;0.91;63.68;100374.72;1784327;78;21027;-60
2021/12/31 04:34:34;;;;;;;29.30;17.25;;;;;;;0.92;63.63;100372.50;1761750;80;21160;-61
2021/12/31 04:37:00;;;;;;;34.98;18.95;;;;;;;0.89;63.59;100376.08;1775847;79;20995;-62
2021/12/31 04:39:28;;;;;;;34.00;18.62;;;;;;;0.84;63.68;100371.53;1746517;80;21053;-60
2021/12/31 04:41:57;;;;;;;29.32;18.45;;;;;;;0.81;63.83;100369.05;1769168;79;21162;-60
2021/12/31 04:44:25;;;;;;;29.00;17.27;;;;;;;0.81;64.04;100362.58;1742830;80;21057;-60
2021/12/31 04:46:51;;;;;;;30.17;17.60;;;;;;;0.83;64.18;100356.88;1734991;82;21190;-61
2021/12/31 04:49:18;;;;;;;29.15;18.15;;;;;;;0.86;64.10;100351.58;1770051;80;20996;-61
2021/12/31 04:51:44;;;;;;;32.45;18.30;;;;;;;0.87;64.25;100344.64;1754204;80;21110;-61
2021/12/31 04:54:15;;;;;;;35.35;17.92;;;;;;;0.92;64.22;100348.75;1766830;78;21042;-60
2021/12/31 04:56:43;;;;;;;31.10;17.57;;;;;;;0.95;64.34;100346.94;1730699;79;21553;-60
2021/12/31 04:59:10;;;;;;;31.48;17.05;;;;;;;0.97;64.23;100349.00;1770420;80;21720;-59
2021/12/31 05:01:38;;;;;;;29.23;16.12;;;;;;;0.98;64.19;100349.41;1738948;80;21568;-60
2021/12/31 05:04:05;;;;;;;30.25;17.92;;;;;;;0.99;64.15;100348.48;1773377;79;21068;-59
2021/12/31 05:06:32;;;;;;;27.93;17.87;;;;;;;0.93;64.12;100343.94;1773305;79;21346;-59
2021/12/31 05:08:59;;;;;;;32.03;16.82;;;;;;;0.93;64.28;100347.83;1779452;79;21551;-60
2021/12/31 05:11:26;;;;;;;28.95;17.65;;;;;;;0.92;64.26;100343.57;1751283;80;21179;-60
2021/12/31 05:13:52;;;;;;;29.52;17.15;;;;;;;0.87;64.42;100344.64;1736993;81;21007;-61
2021/12/31 05:16:19;;;;;;;37.83;17.37;;;;;;;0.90;64.43;100342.77;1761854;79;21082;-60
2021/12/31 05:18:45;;;;;;;30.60;17.37;;;;;;;0.90;64.59;100333.70;1763005;79;21137;-60
2021/12/31 05:21:11;;;;;;;33.63;17.65;;;;;;;0.91;64.60;100333.27;1783140;79;21120;-62
2021/12/31 05:23:39;;;;;;;31.80;19.05;;;;;;;0.90;64.68;100332.41;1775457;79;21091;-60
2021/12/31 05:26:05;;;;;;;29.98;18.30;;;;;;;0.95;64.79;100328.80;1752720;79;21597;-61
2021/12/31 05:28:33;;;;;;;28.00;17.50;;;;;;;0.98;64.82;100335.16;1767168;79;21070;-61
2021/12/31 05:31:00;;;;;;;31.90;19.23;;;;;;;1.02;64.75;100328.92;1735116;80;21667;-60
2021/12/31 05:33:26;;;;;;;35.78;21.40;;;;;;;1.02;64.67;100330.22;1740767;80;21105;-61
2021/12/31 05:35:56;;;;;;;35.88;20.85;;;;;;;0.97;64.56;100333.45;1777357;79;21791;-61
2021/12/31 05:38:22;;;;;;;36.77;19.32;;;;;;;0.91;64.81;100332.80;1778312;78;21083;-63
2021/12/31 05:40:50;;;;;;;31.87;18.82;;;;;;;0.87;64.98;100329.09;1771271;79;22454;-61
2021/12/31 05:43:16;;;;;;;44.30;24.25;;;;;;;0.86;65.04;100319.20;1766749;80;21121;-61
2021/12/31 05:45:43;;;;;;;39.18;23.75;;;;;;;0.84;65.21;100317.12;1763363;79;21067;-60
2021/12/31 05:48:09;;;;;;;36.95;24.02;;;;;;;0.86;65.23;100319.20;1762638;80;21954;-60
2021/12/31 05:50:36;;;;;;;41.83;23.02;;;;;;;0.87;65.36;100319.56;1731586;80;21062;-61
2021/12/31 05:53:03;;;;;;;33.48;20.23;;;;;;;0.91;65.38;100321.61;1719524;81;21042;-60
2021/12/31 05:55:29;;;;;;;34.20;20.97;;;;;;;0.92;65.46;100320.25;1739243;80;21227;-60
2021/12/31 05:57:56;;;;;;;36.10;21.73;;;;;;;0.95;65.35;100315.38;1753036;80;21397;-60
2021/12/31 06:00:24;;;;;;;37.33;20.88;;;;;;;0.94;65.46;100316.27;1724357;80;22046;-59
2021/12/31 06:02:50;;;;;;;33.85;19.15;;;;;;;0.97;65.43;100314.02;1739269;80;21050;-59
2021/12/31 06:05:17;;;;;;;34.78;20.08;;;;;;;0.97;65.45;100329.11;1737258;81;21515;-60
2021/12/31 06:07:43;;;;;;;38.23;19.67;;;;;;;0.99;65.48;100326.45;1716774;81;21117;-60
2021/12/31 06:10:10;;;;;;;39.65;19.30;;;;;;;1.01;65.48;100336.30;1743845;81;21000;-59
2021/12/31 06:12:38;;;;;;;34.13;18.23;;;;;;;1.01;65.49;100333.70;1739550;80;21909;-59
2021/12/31 06:15:08;;;;;;;34.03;18.82;;;;;;;0.99;65.50;100333.77;1733312;80;21055;-59
2021/12/31 06:17:38;;;;;;;36.03;20.20;;;;;;;0.98;65.61;100334.70;1756706;80;21109;-60
2021/12/31 06:20:07;;;;;;;35.25;19.75;;;;;;;1.01;65.81;100344.07;1723023;81;21059;-56
2021/12/31 06:22:34;;;;;;;36.85;20.85;;;;;;;1.03;65.83;100343.13;1727758;81;21509;-60
2021/12/31 06:25:00;;;;;;;39.30;19.87;;;;;;;1.05;65.64;100343.06;1706794;80;21181;-63
2021/12/31 06:27:27;;;;;;;33.33;20.10;;;;;;;0.98;65.74;100346.35;1754360;80;21444;-60
2021/12/31 06:29:53;;;;;;;30.23;17.45;;;;;;;0.96;65.84;100346.88;1724798;80;21069;-59
2021/12/31 06:32:19;;;;;;;32.03;18.48;;;;;;;0.93;66.09;100349.13;1724607;81;21580;-60
2021/12/31 06:34:46;;;;;;;33.05;19.32;;;;;;;0.92;66.17;100345.30;1758958;80;21081;-60
2021/12/31 06:37:12;;;;;;;39.55;22.30;;;;;;;0.89;66.33;100338.51;1748521;80;21096;-60
2021/12/31 06:39:41;;;;;;;32.73;19.50;;;;;;;0.93;66.41;100342.64;1757814;79;21001;-60
2021/12/31 06:42:08;;;;;;;38.78;20.30;;;;;;;0.94;66.55;100339.59;1773126;79;21045;-59
2021/12/31 06:44:37;;;;;;;28.52;19.73;;;;;;;0.96;66.57;100344.72;1744419;79;20976;-59
2021/12/31 06:47:04;;;;;;;36.70;20.75;;;;;;;0.93;66.72;100351.72;1776715;79;21036;-60
2021/12/31 06:49:31;;;;;;;35.73;20.12;;;;;;;0.92;66.94;100350.05;1765641;79;21080;-60
2021/12/31 06:51:57;;;;;;;29.30;19.23;;;;;;;0.95;67.08;100354.70;1785530;78;21468;-57
2021/12/31 06:54:24;;;;;;;32.48;19.15;;;;;;;0.92;67.15;100348.75;1740139;79;21076;-54
2021/12/31 06:56:51;;;;;;;32.48;17.87;;;;;;;0.92;67.43;100352.64;1747049;79;21056;-59
2021/12/31 06:59:17;;;;;;;38.13;19.45;;;;;;;0.92;67.46;100347.89;1761030;79;20993;-60
2021/12/31 07:01:43;;;;;;;37.85;19.30;;;;;;;0.93;67.63;100347.83;1750758;79;21084;-61
2021/12/31 07:04:10;;;;;;;30.70;17.12;;;;;;;0.91;67.77;100348.81;1737889;80;21092;-60
2021/12/31 07:06:36;;;;;;;30.37;18.10;;;;;;;0.95;67.84;100344.34;1737946;80;21071;-60
2021/12/31 07:09:03;;;;;;;28.85;17.90;;;;;;;0.96;68.04;100346.02;1764092;79;20974;-57
2021/12/31 07:11:30;;;;;;;31.37;19.23;;;;;;;0.99;68.08;100344.59;1773500;79;21117;-61
2021/12/31 07:13:56;;;;;;;31.25;18.90;;;;;;;1.00;68.25;100337.22;1760752;79;21143;-60
2021/12/31 07:16:23;;;;;;;26.87;17.12;;;;;;;1.08;68.25;100336.46;1737916;79;21166;-60
2021/12/31 07:18:49;;;;;;;31.65;17.62;;;;;;;1.13;68.33;100326.73;1752076;80;21048;-59
2021/12/31 07:21:16;;;;;;;34.23;18.50;;;;;;;1.22;68.26;100332.82;1730884;79;21116;-60
2021/12/31 07:23:44;;;;;;;35.58;20.10;;;;;;;1.24;68.27;100336.64;1761006;79;21476;-60
2021/12/31 07:26:11;;;;;;;31.40;18.27;;;;;;;1.28;68.25;100337.76;1744180;79;21112;-59
2021/12/31 07:28:37;;;;;;;30.35;19.35;;;;;;;1.29;68.39;100334.70;1787028;78;21025;-60
2021/12/31 07:31:06;;;;;;;27.73;18.87;;;;;;;1.35;68.39;100333.62;1786533;78;21154;-59
2021/12/31 07:33:32;;;;;;;35.60;20.37;;;;;;;1.39;68.49;100330.80;1764367;80;21044;-60
2021/12/31 07:36:00;;;;;;;35.45;19.00;;;;;;;1.47;68.45;100320.12;1737829;80;21065;-60
2021/12/31 07:38:35;;;;;;;33.23;19.15;;;;;;;1.53;68.40;100327.64;1753441;79;21034;-61
2021/12/31 07:41:01;;;;;;;31.62;17.55;;;;;;;1.60;68.37;100333.41;1754059;80;21062;-61
2021/12/31 07:43:27;;;;;;;33.10;18.52;;;;;;;1.64;68.28;100334.48;1743923;80;22443;-59
2021/12/31 07:45:53;;;;;;;30.48;17.92;;;;;;;1.64;68.31;100333.64;1768865;79;21071;-61
2021/12/31 07:48:20;;;;;;;30.05;17.77;;;;;;;1.67;68.34;100333.52;1764790;79;21731;-61
2021/12/31 07:50:47;;;;;;;31.90;17.73;;;;;;;1.69;68.35;100332.16;1765887;79;21439;-61
2021/12/31 07:53:13;;;;;;;34.60;19.50;;;;;;;1.69;68.41;100330.39;1766396;78;21022;-60
2021/12/31 07:55:40;;;;;;;30.95;19.10;;;;;;;1.69;68.48;100328.27;1751968;80;21036;-60
2021/12/31 07:58:07;;;;;;;30.82;18.12;;;;;;;1.71;68.57;100328.56;1732606;80;21086;-60
2021/12/31 08:00:34;;;;;;;28.65;17.77;;;;;;;1.75;68.55;100330.56;1767927;79;21088;-61
2021/12/31 08:03:01;;;;;;;30.65;17.00;;;;;;;1.77;68.60;100332.20;1771277;79;21469;-60
2021/12/31 08:05:28;;;;;;;31.87;17.75;;;;;;;1.89;68.48;100323.48;1766280;79;21050;-61
2021/12/31 08:07:54;;;;;;;28.50;15.38;;;;;;;2.02;68.37;100329.81;1773263;79;21117;-61
2021/12/31 08:10:21;;;;;;;28.77;16.27;;;;;;;2.10;68.41;100325.55;1777626;80;21109;-61
2021/12/31 08:12:47;;;;;;;27.15;16.57;;;;;;;2.12;68.50;100321.13;1746701;80;21106;-61
2021/12/31 08:15:15;;;;;;;31.57;18.37;;;;;;;2.15;68.45;100320.55;1771560;79;21540;-60
2021/12/31 08:17:44;;;;;;;34.10;18.80;;;;;;;2.16;68.44;100321.39;1775196;80;21916;-61
2021/12/31 08:20:11;;;;;;;35.15;19.82;;;;;;;2.18;68.49;100318.25;1771550;80;21585;-60
2021/12/31 08:22:38;;;;;;;35.05;19.77;;;;;;;2.19;68.40;100314.29;1771179;79;21592;-61
2021/12/31 08:25:06;;;;;;;33.55;19.52;;;;;;;2.20;68.32;100312.09;1751785;80;21084;-61
2021/12/31 08:27:33;;;;;;;38.73;20.05;;;;;;;2.21;68.29;100309.03;1777962;79;21747;-61
2021/12/31 08:29:59;;;;;;;29.80;19.12;;;;;;;2.23;68.34;100314.98;1773090;79;21573;-59
2021/12/31 08:32:25;;;;;;;30.02;18.55;;;;;;;2.23;68.34;100308.50;1734310;80;21173;-59
2021/12/31 08:34:52;;;;;;;28.00;16.90;;;;;;;2.23;68.42;100313.22;1764668;79;21527;-59
2021/12/31 08:37:19;;;;;;;28.20;17.57;;;;;;;2.25;68.52;100308.43;1770729;79;21066;-59
2021/12/31 08:39:45;;;;;;;34.58;18.57;;;;;;;2.24;68.69;100315.38;1745267;80;21112;-61
2021/12/31 08:42:12;;;;;;;31.37;18.35;;;;;;;2.32;68.66;100308.52;1774988;80;21056;-67
2021/12/31 08:44:40;;;;;;;31.00;16.42;;;;;;;2.44;68.61;100300.60;1777983;79;21093;-66
2021/12/31 08:47:07;;;;;;;28.55;15.48;;;;;;;2.55;68.55;100294.45;1757459;79;21530;-67
2021/12/31 08:49:35;;;;;;;32.88;17.27;;;;;;;2.63;68.75;100300.58;1774079;78;21121;-67
2021/12/31 08:52:02;;;;;;;29.80;17.25;;;;;;;2.67;68.79;100299.04;1781040;79;21190;-66
2021/12/31 08:54:29;;;;;;;33.80;16.10;;;;;;;2.71;68.68;100308.85;1748030;80;21117;-68
2021/12/31 08:56:56;;;;;;;30.15;16.50;;;;;;;2.71;68.62;100321.38;1777247;79;21481;-69
2021/12/31 08:59:22;;;;;;;33.05;16.87;;;;;;;2.64;68.59;100311.34;1754401;78;21097;-68
2021/12/31 09:01:49;;;;;;;30.27;17.37;;;;;;;2.60;68.72;100314.55;1754842;79;21029;-66
2021/12/31 09:04:15;;;;;;;32.42;17.70;;;;;;;2.56;68.83;100306.06;1780056;79;21103;-69
2021/12/31 09:06:43;;;;;;;31.20;16.87;;;;;;;2.55;69.00;100306.13;1765918;78;21058;-69
2021/12/31 09:09:10;;;;;;;27.82;17.80;;;;;;;2.57;69.03;100305.16;1774328;79;21104;-69
2021/12/31 09:11:38;;;;;;;28.00;16.23;;;;;;;2.57;69.11;100303.86;1770882;79;21582;-69
2021/12/31 09:14:04;;;;;;;26.07;16.35;;;;;;;2.68;69.04;100300.73;1778488;79;21098;-67
2021/12/31 09:16:31;;;;;;;27.95;16.15;;;;;;;2.83;68.82;100298.31;1770713;78;21148;-65
2021/12/31 09:18:57;;;;;;;28.75;15.28;;;;;;;2.96;68.77;100293.73;1778086;79;22500;-67
2021/12/31 09:21:24;;;;;;;27.02;16.12;;;;;;;3.04;68.70;100295.92;1776123;79;21065;-66
2021/12/31 09:23:50;;;;;;;34.23;17.65;;;;;;;3.11;68.76;100289.96;1779328;79;21083;-65
2021/12/31 09:26:17;;;;;;;30.80;17.92;;;;;;;3.14;68.63;100290.67;1780096;79;21128;-65
2021/12/31 09:28:45;;;;;;;31.20;18.17;;;;;;;3.18;68.68;100290.05;1775262;79;21111;-66
2021/12/31 09:31:12;;;;;;;31.23;17.32;;;;;;;3.20;68.36;100289.51;1752893;80;21116;-66
2021/12/31 09:33:41;;;;;;;28.27;17.77;;;;;;;3.18;68.33;100280.09;1778781;78;21003;-67
2021/12/31 09:36:08;;;;;;;31.07;17.90;;;;;;;3.13;68.34;100286.84;1777156;80;21129;-67
2021/12/31 09:38:35;;;;;;;31.97;17.50;;;;;;;3.07;68.41;100276.75;1772513;78;21119;-68
2021/12/31 09:41:01;;;;;;;34.08;19.15;;;;;;;3.03;68.61;100278.66;1779102;79;21051;-65
2021/12/31 09:43:28;;;;;;;34.88;16.87;;;;;;;3.05;68.65;100276.82;1770986;79;21057;-67
2021/12/31 09:45:54;;;;;;;30.77;16.30;;;;;;;3.16;68.54;100280.16;1777754;79;21474;-65
2021/12/31 09:48:23;;;;;;;25.65;16.17;;;;;;;3.24;68.49;100271.98;1748321;80;21038;-68
2021/12/31 09:50:54;;;;;;;29.37;16.85;;;;;;;3.33;68.53;100284.53;1743390;80;22004;-68
2021/12/31 09:53:24;;;;;;;30.35;18.52;;;;;;;3.37;68.60;100284.73;1772523;80;21598;-70
2021/12/31 09:55:55;;;;;;;31.25;17.30;;;;;;;3.37;68.53;100277.41;1772272;80;21050;-68
2021/12/31 09:58:25;;;;;;;29.55;17.32;;;;;;;3.34;68.60;100277.09;1771677;79;21538;-64
2021/12/31 10:01:00;;;;;;;33.35;18.82;;;;;;;3.28;68.65;100273.53;1771571;79;21361;-66
2021/12/31 10:03:29;;;;;;;30.40;17.00;;;;;;;3.21;68.81;100270.84;1776267;79;20999;-67
2021/12/31 10:06:03;;;;;;;32.48;17.30;;;;;;;3.15;68.98;100267.63;1773540;80;21148;-68
2021/12/31 10:08:43;;;;;;;34.33;17.23;;;;;;;3.13;69.15;100264.28;1766886;80;21043;-58
2021/12/31 10:11:21;;;;;;;32.17;18.05;;;;;;;3.15;69.21;100266.80;1768285;79;21043;-66
2021/12/31 10:13:55;;;;;;;30.77;17.35;;;;;;;3.26;69.22;100268.84;1744206;79;21017;-67
2021/12/31 10:16:27;;;;;;;32.93;17.00;;;;;;;3.31;69.23;100266.41;1778433;79;21121;-67
2021/12/31 10:19:10;;;;;;;31.00;17.77;;;;;;;3.36;69.40;100264.84;1777470;79;21091;-68
2021/12/31 10:21:52;;;;;;;34.18;17.62;;;;;;;3.38;69.55;100259.12;1773811;79;21023;-65
2021/12/31 10:24:29;;;;;;;37.30;19.73;;;;;;;3.41;69.63;100255.03;1786642;78;23285;-67
2021/12/31 10:26:57;;;;;;;32.58;19.00;;;;;;;3.44;69.59;100258.78;1788882;79;21022;-60
2021/12/31 10:29:25;;;;;;;33.95;18.82;;;;;;;3.44;69.51;100252.28;1754447;80;21077;-60
2021/12/31 10:31:52;;;;;;;37.78;17.73;;;;;;;3.42;69.56;100254.13;1788313;79;21113;-61
2021/12/31 10:34:31;;;;;;;31.73;17.20;;;;;;;3.43;69.61;100254.95;1783001;78;21045;-59
2021/12/31 10:37:02;;;;;;;26.80;15.63;;;;;;;3.41;69.71;100244.63;1785651;78;21144;-60
2021/12/31 10:39:31;;;;;;;30.05;17.30;;;;;;;3.46;69.62;100241.36;1785514;79;21073;-62
2021/12/31 10:42:05;;;;;;;29.05;17.02;;;;;;;3.55;69.55;100240.03;1752401;80;21060;-61
2021/12/31 10:44:52;;;;;;;26.65;14.65;;;;;;;3.61;69.53;100229.74;1726369;80;21263;-61
2021/12/31 10:47:39;;;;;;;31.42;16.60;;;;;;;3.65;69.69;100226.06;1734630;80;21062;-61
2021/12/31 10:50:11;;;;;;;;;;;;;;;3.61;69.89;100227.14;1763777;80;21493;-60
2021/12/31 10:52:58;;;;;;;30.82;17.05;;;;;;;3.57;69.95;100236.05;1743408;80;20172;-61
2021/12/31 10:55:25;;;;;;;30.90;16.73;;;;;;;3.49;70.26;100234.67;1766958;80;21137;-61
2021/12/31 10:58:03;;;;;;;26.95;17.42;;;;;;;3.47;70.30;100227.41;1736669;80;21133;-62
2021/12/31 11:00:37;;;;;;;29.45;15.28;;;;;;;3.48;70.39;100229.11;1764483;79;21125;-61
2021/12/31 11:03:05;;;;;;;24.92;15.98;;;;;;;3.46;70.41;100222.28;1772096;79;21074;-62
2021/12/31 11:05:31;;;;;;;32.10;16.00;;;;;;;3.54;70.30;100221.42;1745101;80;21094;-63
2021/12/31 11:08:05;;;;;;;26.40;14.73;;;;;;;3.64;70.17;100216.57;1738357;80;21569;-62
2021/12/31 11:10:36;;;;;;;25.68;13.85;;;;;;;3.68;70.16;100220.23;1769349;79;21095;-62
2021/12/31 11:13:10;;;;;;;24.30;14.03;;;;;;;3.69;70.30;100224.97;1772916;79;21065;-62
2021/12/31 11:15:37;;;;;;;26.12;14.80;;;;;;;3.67;70.40;100230.25;1759381;79;21011;-62
2021/12/31 11:18:05;;;;;;;27.13;15.38;;;;;;;3.67;70.43;100225.52;1768309;79;21509;-63
2021/12/31 11:20:32;;;;;;;27.32;16.52;;;;;;;3.68;70.52;100215.03;1774532;79;21046;-61
2021/12/31 11:23:00;;;;;;;26.77;15.88;;;;;;;3.72;70.47;100211.80;1766329;79;21066;-61
2021/12/31 11:25:28;;;;;;;29.95;16.80;;;;;;;3.79;70.39;100209.70;1737372;79;21026;-63
2021/12/31 11:27:56;;;;;;;23.75;15.90;;;;;;;3.86;70.33;100205.83;1768925;79;21042;-61
2021/12/31 11:30:37;;;;;;;29.95;15.38;;;;;;;3.96;70.09;100203.56;1768203;79;21053;-60
2021/12/31 11:33:09;;;;;;;24.87;14.43;;;;;;;4.14;69.72;100209.52;1770363;79;21075;-63
2021/12/31 11:35:43;;;;;;;25.90;14.95;;;;;;;4.25;69.35;100206.69;1762557;79;21082;-62
2021/12/31 11:38:23;;;;;;;25.88;16.87;;;;;;;4.31;69.27;100200.75;1769591;79;21088;-64
2021/12/31 11:41:02;;;;;;;29.87;17.70;;;;;;;4.31;69.36;100196.84;1731537;80;21097;-63
2021/12/31 11:43:29;;;;;;;30.15;17.95;;;;;;;4.30;69.34;100197.28;1736302;79;21138;-64
2021/12/31 11:46:22;;;;;;;28.30;16.05;;;;;;;4.30;69.34;100195.16;1767553;80;21077;-63
2021/12/31 11:48:53;;;;;;;28.38;16.00;;;;;;;4.25;69.31;100181.94;1768295;80;21057;-61
2021/12/31 11:51:36;;;;;;;27.07;15.63;;;;;;;4.21;69.36;100186.94;1768940;79;21537;-63
2021/12/31 11:54:08;;;;;;;24.35;14.95;;;;;;;4.17;69.49;100191.95;1767725;79;21596;-63
2021/12/31 11:56:46;;;;;;;25.02;14.63;;;;;;;4.18;69.50;100179.77;1767751;79;21062;-64
2021/12/31 11:59:24;;;;;;;28.47;15.28;;;;;;;4.28;69.48;100179.14;1770193;79;21125;-63
2021/12/31 12:02:15;;;;;;;26.40;14.93;;;;;;;4.40;69.39;100176.29;1764060;80;21499;-62
2021/12/31 12:04:43;;;;;;;33.38;16.60;;;;;;;4.47;69.46;100165.05;1772942;79;21045;-61
2021/12/31 12:07:40;;;;;;;29.70;16.42;;;;;;;4.54;69.56;100160.33;1769830;80;21075;-63
2021/12/31 12:10:12;;;;;;;30.05;15.65;;;;;;;4.61;69.48;100165.58;1770658;79;20995;-62
2021/12/31 12:12:40;;;;;;;24.67;15.72;;;;;;;4.67;69.01;100170.88;1741255;80;21742;-60
2021/12/31 12:15:19;;;;;;;24.60;15.38;;;;;;;4.63;68.89;100171.53;1771252;79;21094;-61
2021/12/31 12:17:47;;;;;;;27.58;15.30;;;;;;;4.60;68.79;100171.70;1768246;79;21066;-62
2021/12/31 12:20:23;;;;;;;30.72;16.77;;;;;;;4.53;68.74;100173.00;1773151;80;21078;-62
2021/12/31 12:22:56;;;;;;;29.48;15.83;;;;;;;4.43;68.88;100171.38;1772024;79;21226;-63
2021/12/31 12:25:30;;;;;;;27.75;15.80;;;;;;;4.42;68.95;100169.25;1772667;79;21043;-63
2021/12/31 12:28:07;;;;;;;29.77;14.98;;;;;;;4.49;68.88;100179.30;1770032;79;21010;-65
2021/12/31 12:30:35;;;;;;;24.93;14.87;;;;;;;4.52;68.87;100180.42;1728616;80;21141;-63
2021/12/31 12:33:15;;;;;;;24.27;14.15;;;;;;;4.50;68.99;100172.70;1743431;80;21134;-62
2021/12/31 12:35:39;;;;;;;25.35;15.45;;;;;;;4.42;69.28;100170.55;1764657;79;21106;-65
2021/12/31 12:38:22;;;;;;;31.42;16.65;;;;;;;4.34;69.45;100162.34;1770118;80;21121;-66
2021/12/31 12:40:58;;;;;;;27.77;14.95;;;;;;;4.28;69.65;100167.42;1768034;79;21177;-65
2021/12/31 12:43:30;;;;;;;27.87;15.40;;;;;;;4.23;69.75;100165.55;1770090;79;21089;-67
2021/12/31 12:46:06;;;;;;;27.00;15.18;;;;;;;4.16;69.97;100164.22;1743560;80;21043;-66
2021/12/31 12:48:45;;;;;;;27.75;15.60;;;;;;;4.15;70.03;100158.63;1759610;79;21067;-62
2021/12/31 12:51:14;;;;;;;25.68;15.00;;;;;;;4.22;69.96;100156.52;1736171;80;21165;-63
2021/12/31 12:53:48;;;;;;;27.17;14.68;;;;;;;4.24;70.07;100159.89;1740412;80;21066;-63
2021/12/31 12:56:17;;;;;;;34.80;16.60;;;;;;;4.24;70.18;100154.21;1758122;79;21544;-58
2021/12/31 12:58:54;;;;;;;32.15;15.78;;;;;;;4.23;70.22;100156.90;1753648;79;21113;-57
2021/12/31 13:01:42;;;;;;;28.23;17.07;;;;;;;4.18;70.28;100140.70;1764100;79;21082;-56
2021/12/31 13:04:10;;;;;;;29.72;16.57;;;;;;;4.13;70.32;100141.42;1761214;79;21069;-58
2021/12/31 13:06:37;;;;;;;30.50;16.50;;;;;;;4.08;70.48;100136.03;1772186;80;21150;-59
2021/12/31 13:09:15;;;;;;;31.55;16.87;;;;;;;4.12;70.50;100128.02;1768737;79;21022;-62
2021/12/31 13:11:49;;;;;;;32.70;15.98;;;;;;;4.23;70.28;100127.77;1771186;79;21582;-60
2021/12/31 13:14:18;;;;;;;28.00;14.28;;;;;;;4.36;70.13;100127.09;1773681;79;21426;-61
2021/12/31 13:16:50;;;;;;;34.48;16.67;;;;;;;4.42;70.08;100119.75;1775993;80;21053;-61
2021/12/31 13:19:16;;;;;;;34.45;17.17;;;;;;;4.44;70.12;100113.98;1775030;79;21358;-61
2021/12/31 13:21:43;;;;;;;30.48;16.32;;;;;;;4.45;69.99;100118.27;1742486;79;21026;-63
2021/12/31 13:24:20;;;;;;;38.95;18.90;;;;;;;4.45;69.90;100122.63;1769508;79;21011;-60
2021/12/31 13:26:55;;;;;;;36.90;17.62;;;;;;;4.43;69.91;100118.80;1768485;79;21046;-60
2021/12/31 13:29:39;;;;;;;35.08;17.07;;;;;;;4.42;69.88;100121.50;1768462;79;21130;-59
2021/12/31 13:32:11;;;;;;;28.62;17.50;;;;;;;4.38;69.82;100117.41;1766953;80;21106;-64
2021/12/31 13:34:49;;;;;;;33.48;17.85;;;;;;;4.33;69.86;100124.18;1748417;80;21082;-59
2021/12/31 13:37:40;;;;;;;32.95;17.42;;;;;;;4.30;69.95;100120.92;1774372;79;21125;-60
2021/12/31 13:40:20;;;;;;;32.58;17.02;;;;;;;4.33;69.91;100121.58;1769295;79;21068;-62
2021/12/31 13:43:04;;;;;;;34.35;17.90;;;;;;;4.43;69.75;100117.97;1763971;79;21093;-63
2021/12/31 13:45:31;;;;;;;28.15;16.42;;;;;;;4.49;69.75;100117.63;1761520;79;21133;-63
2021/12/31 13:48:10;;;;;;;31.87;17.57;;;;;;;4.51;69.75;100124.87;1749918;79;21495;-63
2021/12/31 13:50:36;;;;;;;31.60;17.37;;;;;;;4.43;69.92;100125.31;1768220;79;21091;-62
2021/12/31 13:53:03;;;;;;;32.55;17.30;;;;;;;4.39;70.15;100121.70;1775761;79;21056;-62
2021/12/31 13:55:30;;;;;;;42.03;20.97;;;;;;;4.38;70.25;100122.14;1748468;80;21156;-63
2021/12/31 13:58:03;;;;;;;40.67;17.90;;;;;;;4.38;70.19;100115.63;1757363;80;22130;-62
2021/12/31 14:00:31;;;;;;;32.63;17.15;;;;;;;4.37;70.13;100115.28;1761415;80;21099;-63
2021/12/31 14:03:17;;;;;;;32.48;16.62;;;;;;;4.34;70.11;100114.59;1757462;80;21105;-63
2021/12/31 14:05:51;;;;;;;35.28;17.35;;;;;;;4.34;70.03;100115.89;1754632;81;21600;-66
2021/12/31 14:08:42;;;;;;;38.85;19.00;;;;;;;4.45;69.74;100117.41;1743500;81;21494;-65
2021/12/31 14:10:59;;;;;;;29.30;17.12;;;;;;;4.52;69.70;100117.89;1743601;80;22106;-62
2021/12/31 14:13:26;;;;;;;33.90;19.17;;;;;;;4.53;69.81;100125.63;1754718;80;20990;-63
2021/12/31 14:15:53;;;;;;;39.03;19.12;;;;;;;4.52;69.83;100133.05;1753337;80;21014;-62
2021/12/31 14:18:19;;;;;;;39.75;19.55;;;;;;;4.48;69.93;100128.97;1747813;80;21080;-64
2021/12/31 14:20:45;;;;;;;35.88;19.10;;;;;;;4.48;70.05;100128.13;1754217;80;21695;-63
2021/12/31 14:23:14;;;;;;;32.38;18.42;;;;;;;4.45;69.99;100122.63;1762562;80;21048;-61
2021/12/31 14:25:45;;;;;;;36.63;19.37;;;;;;;4.44;69.96;100118.36;1744399;80;21324;-62
2021/12/31 14:28:11;;;;;;;40.30;19.20;;;;;;;4.44;69.92;100122.27;1750853;80;21093;-61
2021/12/31 14:30:39;;;;;;;38.98;19.82;;;;;;;4.44;69.96;100120.97;1758641;80;21670;-61
2021/12/31 14:33:05;;;;;;;38.92;18.65;;;;;;;4.43;69.85;100125.80;1768140;80;21078;-61
2021/12/31 14:35:40;;;;;;;31.87;18.10;;;;;;;4.44;69.73;100125.70;1755701;80;22909;-63
2021/12/31 14:38:04;;;;;;;32.93;16.17;;;;;;;4.55;69.59;100120.32;1730434;80;20999;-61
2021/12/31 14:40:31;;;;;;;34.20;15.43;;;;;;;4.62;69.63;100113.37;1760832;80;21100;-61
2021/12/31 14:42:57;;;;;;;32.15;15.08;;;;;;;4.68;69.66;100117.36;1755350;80;20995;-62
2021/12/31 14:45:24;;;;;;;25.90;15.20;;;;;;;4.63;69.72;100114.19;1748367;80;21081;-62
2021/12/31 14:47:50;;;;;;;28.98;15.78;;;;;;;4.56;69.83;100116.33;1730925;81;21097;-62
2021/12/31 14:50:19;;;;;;;29.37;16.85;;;;;;;4.50;70.00;100117.98;1748222;80;21054;-62
2021/12/31 14:52:51;;;;;;;32.42;15.70;;;;;;;4.46;70.14;100119.10;1752099;81;21046;-61
2021/12/31 14:55:18;;;;;;;30.80;15.83;;;;;;;4.42;70.24;100123.66;1749259;81;21054;-61
2021/12/31 14:57:45;;;;;;;33.25;15.48;;;;;;;4.39;70.32;100117.80;1731017;80;21717;-62
2021/12/31 15:00:18;;;;;;;30.37;14.55;;;;;;;4.38;70.30;100118.71;1754521;81;21136;-62
2021/12/31 15:02:44;;;;;;;23.77;14.38;;;;;;;4.48;70.15;100121.15;1753321;81;21117;-63
2021/12/31 15:05:13;;;;;;;25.27;14.03;;;;;;;4.58;70.07;100127.48;1754119;80;21105;-67
2021/12/31 15:07:41;;;;;;;25.32;15.00;;;;;;;4.64;70.03;100118.48;1748796;80;21085;-65
2021/12/31 15:10:08;;;;;;;28.87;15.58;;;;;;;4.64;70.04;100119.31;1754783;80;21196;-62